createdAt,value
2018-07-15T00:02:04.036Z,6.73
2018-07-15T00:04:32.467Z,6.60
2018-07-15T00:07:00.912Z,6.67
2018-07-15T00:09:29.333Z,5.87
2018-07-15T00:11:57.807Z,6.37
2018-07-15T18:35:29.242Z,2.60
2018-07-15T18:37:57.656Z,2.60
2018-07-15T18:40:26.141Z,3.23
2018-07-15T18:42:54.618Z,3.00
2018-07-15T18:45:22.847Z,3.10
2018-07-15T18:47:51.373Z,2.97
2018-07-15T18:50:20.042Z,2.97
2018-07-15T18:52:48.509Z,2.97
2018-07-15T18:55:16.814Z,3.40
2018-07-15T18:57:44.842Z,3.13
2018-07-15T19:00:13.282Z,3.00
2018-07-15T19:02:41.288Z,3.20
2018-07-15T19:05:09.614Z,3.30
2018-07-15T19:07:38.129Z,3.17
2018-07-15T19:10:06.714Z,2.87
2018-07-15T19:12:35.201Z,3.03
2018-07-15T19:15:03.768Z,3.17
2018-07-15T19:17:32.258Z,3.13
2018-07-15T19:20:00.696Z,3.57
2018-07-15T19:22:29.083Z,3.10
2018-07-15T19:24:57.405Z,3.03
2018-07-15T19:27:25.820Z,2.90
2018-07-15T19:29:54.232Z,3.03
2018-07-15T19:32:22.864Z,3.60
2018-07-15T19:34:51.301Z,3.50
2018-07-15T19:37:19.895Z,3.17
2018-07-15T19:39:48.390Z,3.50
2018-07-15T19:42:16.928Z,3.40
2018-07-15T19:44:45.438Z,3.00
2018-07-15T19:47:13.985Z,2.97
2018-07-15T19:49:42.425Z,3.10
2018-07-15T19:52:10.839Z,3.27
2018-07-15T19:54:39.699Z,3.13
2018-07-15T19:57:08.432Z,2.60
2018-07-15T19:59:36.896Z,3.40
2018-07-15T20:02:05.696Z,3.30
2018-07-15T20:04:33.785Z,3.03
2018-07-15T20:07:02.170Z,3.00
2018-07-15T20:09:30.589Z,4.27
2018-07-15T20:11:58.913Z,4.40
2018-07-15T20:14:27.335Z,3.93
2018-07-15T20:16:55.781Z,3.70
2018-07-15T20:19:24.390Z,3.40
2018-07-15T20:21:52.938Z,3.67
2018-07-15T20:24:21.244Z,3.43
2018-07-15T20:26:49.715Z,3.87
2018-07-15T20:29:18.191Z,3.70
2018-07-15T20:31:46.317Z,3.87
2018-07-15T20:34:14.744Z,3.23
2018-07-15T20:36:43.158Z,3.37
2018-07-15T20:39:11.499Z,4.40
2018-07-15T20:41:40.124Z,4.43
2018-07-15T20:44:08.603Z,3.77
2018-07-15T20:46:37.085Z,4.10
2018-07-15T20:49:05.696Z,4.80
2018-07-15T20:51:34.233Z,4.37
2018-07-15T20:54:02.841Z,5.07
2018-07-15T20:56:31.539Z,5.10
2018-07-15T20:59:00.092Z,5.03
2018-07-15T21:01:28.640Z,5.40
2018-07-15T21:04:01.317Z,5.17
2018-07-15T21:06:30.039Z,5.00
2018-07-15T21:08:58.959Z,4.70
2018-07-15T21:11:27.621Z,4.83
2018-07-15T21:13:56.207Z,4.97
2018-07-15T21:16:25.543Z,4.90
2018-07-15T21:18:54.061Z,5.37
2018-07-15T21:21:22.598Z,5.07
2018-07-15T21:23:51.065Z,5.27
2018-07-15T21:26:19.626Z,5.87
2018-07-15T21:28:48.252Z,6.30
2018-07-15T21:31:17.049Z,6.97
2018-07-15T21:33:45.541Z,5.70
2018-07-15T21:36:13.948Z,5.30
2018-07-15T21:38:42.473Z,5.40
2018-07-15T21:41:11.010Z,6.97
2018-07-15T21:43:39.597Z,5.40
2018-07-15T21:46:07.972Z,4.90
2018-07-15T21:48:36.519Z,5.07
2018-07-15T21:51:04.941Z,5.47
2018-07-15T21:53:33.371Z,5.50
2018-07-15T21:56:01.766Z,5.20
2018-07-15T21:58:30.312Z,5.67
2018-07-15T22:00:58.844Z,5.53
2018-07-15T22:03:27.154Z,5.57
2018-07-15T22:05:55.739Z,5.40
2018-07-15T22:08:35.593Z,5.13
2018-07-15T22:11:04.114Z,5.37
2018-07-15T22:13:32.432Z,5.97
2018-07-15T22:16:00.825Z,5.60
2018-07-15T22:18:29.285Z,5.70
2018-07-15T22:20:57.323Z,5.60
2018-07-15T22:23:25.732Z,6.00
2018-07-15T22:25:54.130Z,5.80
2018-07-15T22:28:22.595Z,6.23
2018-07-15T22:30:50.960Z,5.53
2018-07-15T22:33:19.357Z,5.17
2018-07-15T22:35:47.724Z,5.73
2018-07-15T22:38:16.006Z,6.10
2018-07-15T22:40:44.340Z,5.60
2018-07-15T22:43:12.665Z,5.40
2018-07-15T22:45:41.077Z,5.50
2018-07-15T22:48:09.536Z,5.63
2018-07-15T22:50:38.002Z,5.80
2018-07-15T22:53:06.056Z,6.37
2018-07-15T22:55:34.594Z,6.00
2018-07-15T22:58:03.219Z,6.00
2018-07-15T23:00:31.546Z,6.00
2018-07-15T23:03:00.088Z,6.07
2018-07-15T23:05:48.534Z,6.47
2018-07-15T23:08:17.019Z,6.30
2018-07-15T23:10:45.408Z,5.93
2018-07-15T23:13:14.322Z,7.70
2018-07-15T23:15:42.936Z,6.63
2018-07-15T23:18:11.218Z,6.50
2018-07-15T23:20:40.672Z,7.00
2018-07-15T23:23:09.801Z,6.17
2018-07-15T23:25:38.527Z,6.87
2018-07-15T23:28:08.048Z,5.67
2018-07-15T23:30:37.202Z,6.40
2018-07-15T23:33:06.119Z,5.83
2018-07-15T23:35:34.914Z,6.40
2018-07-15T23:38:03.374Z,6.20
2018-07-15T23:40:31.831Z,6.73
2018-07-15T23:43:00.649Z,5.73
2018-07-15T23:45:30.019Z,6.53
2018-07-15T23:47:58.366Z,6.80
2018-07-15T23:50:26.978Z,6.30
2018-07-15T23:52:55.657Z,6.87
2018-07-15T23:55:24.546Z,6.37
2018-07-15T23:57:53.146Z,6.93
